ELY578 LROP-LLBG
Flight info
| Callsign | ELY578 |
|---|---|
| Flight time | N/A |
| Altitude | 29000 |
| Route | IDARU DCT NONQE DCT MAXOV DCT MATEL/N0465F370 L620 RIXEN UG1 IST UT35 RATVU/N0471F390 UT35 AYT UA16 TOMBI DCT IDAKU L35 PIKOG L609 ZUKKO |
| Aircraft | B772/H-SDE2E3FGHIJ4J5LM1OP2RVWXY/LB1D1 |
Departure
| Time | 2026-05-01 11:28 |
|---|---|
| Airport | Bucharest Henri Coandă International Airport (LROP) |
Arrival
| Time | N/A |
|---|---|
| Airport | Ben Gurion International Airport (LLBG) |
| Time | Latitude | Longitude | Altitude | Speed | Heading |
|---|---|---|---|---|---|
| 2026-05-01 11:17 | 44.57035 | 26.08265 | 325 ft | 0 kts | 309° |
| 2026-05-01 11:22 | 44.57025 | 26.08283 | 320 ft | 3 kts | 309° |
| 2026-05-01 11:22 | 44.57011 | 26.08306 | 320 ft | 4 kts | 305° |
| 2026-05-01 11:22 | 44.56997 | 26.08338 | 320 ft | 4 kts | 293° |
| 2026-05-01 11:22 | 44.56991 | 26.08367 | 320 ft | 4 kts | 265° |
| 2026-05-01 11:23 | 44.56996 | 26.08389 | 320 ft | 4 kts | 177° |
| 2026-05-01 11:23 | 44.57023 | 26.08385 | 320 ft | 4 kts | 173° |
| 2026-05-01 11:23 | 44.57028 | 26.08384 | 325 ft | 0 kts | 173° |
| 2026-05-01 11:25 | 44.57024 | 26.08385 | 325 ft | 5 kts | 173° |
| 2026-05-01 11:25 | 44.56915 | 26.08519 | 322 ft | 14 kts | 56° |
| 2026-05-01 11:25 | 44.57006 | 26.08537 | 322 ft | 14 kts | 355° |
| 2026-05-01 11:26 | 44.57108 | 26.08522 | 324 ft | 17 kts | 354° |
| 2026-05-01 11:26 | 44.57394 | 26.08481 | 321 ft | 18 kts | 352° |
| 2026-05-01 11:26 | 44.57514 | 26.08464 | 324 ft | 15 kts | 354° |
| 2026-05-01 11:27 | 44.57599 | 26.08453 | 322 ft | 13 kts | 355° |
| 2026-05-01 11:27 | 44.57663 | 26.08492 | 324 ft | 8 kts | 65° |
| 2026-05-01 11:27 | 44.57670 | 26.08536 | 326 ft | 0 kts | 82° |
| 2026-05-01 11:27 | 44.57678 | 26.08616 | 327 ft | 32 kts | 83° |
| 2026-05-01 11:28 | 44.57732 | 26.09312 | 322 ft | 109 kts | 83° |
| 2026-05-01 11:28 | 44.57845 | 26.10666 | 398 ft | 162 kts | 81° |
| 2026-05-01 11:28 | 44.57984 | 26.12256 | 1099 ft | 170 kts | 80° |
| 2026-05-01 11:29 | 44.58329 | 26.15676 | 2739 ft | 184 kts | 79° |
| 2026-05-01 11:29 | 44.58499 | 26.17482 | 3414 ft | 195 kts | 80° |
| 2026-05-01 11:29 | 44.58761 | 26.21781 | 4118 ft | 247 kts | 83° |
| 2026-05-01 11:30 | 44.58900 | 26.24228 | 4973 ft | 255 kts | 83° |
| 2026-05-01 11:30 | 44.59055 | 26.26736 | 5895 ft | 260 kts | 82° |
| 2026-05-01 11:30 | 44.59220 | 26.29257 | 6830 ft | 264 kts | 82° |
| 2026-05-01 11:30 | 44.59393 | 26.31837 | 7716 ft | 266 kts | 84° |
| 2026-05-01 11:31 | 44.59131 | 26.34431 | 8366 ft | 280 kts | 114° |
| 2026-05-01 11:31 | 44.58035 | 26.36695 | 9139 ft | 283 kts | 126° |
| 2026-05-01 11:31 | 44.56813 | 26.38918 | 9993 ft | 289 kts | 125° |
| 2026-05-01 11:31 | 44.55596 | 26.41170 | 10906 ft | 290 kts | 124° |
| 2026-05-01 11:32 | 44.54389 | 26.43406 | 11761 ft | 292 kts | 125° |
| 2026-05-01 11:32 | 44.53119 | 26.45684 | 12513 ft | 300 kts | 127° |
| 2026-05-01 11:32 | 44.51731 | 26.47982 | 13103 ft | 315 kts | 129° |
| 2026-05-01 11:32 | 44.50221 | 26.50244 | 13763 ft | 327 kts | 133° |
| 2026-05-01 11:33 | 44.48560 | 26.52454 | 14657 ft | 329 kts | 136° |
| 2026-05-01 11:33 | 44.46808 | 26.54506 | 15687 ft | 325 kts | 140° |
| 2026-05-01 11:33 | 44.44986 | 26.56377 | 16605 ft | 325 kts | 144° |
| 2026-05-01 11:33 | 44.43045 | 26.58096 | 17219 ft | 336 kts | 148° |
| 2026-05-01 11:34 | 44.40949 | 26.59659 | 17624 ft | 353 kts | 153° |
| 2026-05-01 11:34 | 44.38739 | 26.60843 | 18224 ft | 358 kts | 162° |